Terminal Aerodrome Forecast
Issued by NWS

Home | Current Version | Previous Version | Text Only | Print | Product List | Glossary On
Versions: 1 2 3 4 5 6 7 8 9 10 11 12 13 14 15 16 17 18 19 20 21 22 23 24 25 26 27 28
000
FTUS46 KHNX 261138
TAFVIS
TAF
KVIS 261138Z 2612/2712 VRB04KT 1/4SM FG VV001
      TEMPO 2617/2620 1SM BR BKN006
     FM262000 15005KT 2SM BR SCT006 SCT050 BKN120 PROB30 2623/2703
      -RA BKN050 BKN120
     FM270300 13005KT 5SM -SHRA SCT030 BKN050=

USA.gov is the U.S. government's official web portal to all federal, state and local government web resources and services.